Time;durP1;ratioP1;P1;durP2;ratioP2;P2;SDS_P1;SDS_P2;PMS_P1;PMS_P2;Temp;Humidity;BMP_temperature;BMP_pressure;BME280_temperature;BME280_humidity;BME280_pressure;Samples;Min_cycle;Max_cycle;Signal;HPM_P1;HPM_P2
2023/02/25 00:09:38;;;;;;;1999.90;999.90;;;4.40;99.90;;;;;;6715098;88;20642;-77
2023/02/25 00:19:39;;;;;;;1999.90;999.90;;;4.40;99.90;;;;;;6708128;88;20224;-77
2023/02/25 00:29:39;;;;;;;1999.90;999.90;;;4.40;99.90;;;;;;6716225;88;20194;-76
2023/02/25 00:39:43;;;;;;;1999.90;999.90;;;4.30;99.90;;;;;;6717042;88;20178;-76
2023/02/25 00:49:47;;;;;;;1999.90;999.90;;;4.30;99.90;;;;;;6726166;88;20640;-76
2023/02/25 00:59:48;;;;;;;1999.90;999.90;;;4.30;99.90;;;;;;6719515;88;20182;-78
2023/02/25 01:09:49;;;;;;;1999.90;999.90;;;4.30;99.90;;;;;;6720527;88;20265;-77
2023/02/25 01:19:49;;;;;;;1999.90;999.90;;;4.20;99.90;;;;;;6719524;88;20185;-76
2023/02/25 01:29:50;;;;;;;1999.90;999.90;;;4.10;99.90;;;;;;6724281;88;20693;-76
2023/02/25 01:39:50;;;;;;;1999.90;999.90;;;4.10;99.90;;;;;;6716761;88;20728;-77
2023/02/25 01:49:51;;;;;;;1999.90;999.90;;;4.00;99.90;;;;;;6715511;88;20197;-77
2023/02/25 01:59:53;;;;;;;1999.90;999.90;;;4.10;99.90;;;;;;6717106;88;20533;-77
2023/02/25 02:09:58;;;;;;;1999.90;999.90;;;4.00;99.90;;;;;;6712618;88;20245;-77
2023/02/25 02:20:19;;;;;;;1999.90;999.90;;;4.00;99.90;;;;;;6718150;88;20180;-77
2023/02/25 02:30:33;;;;;;;1999.90;999.90;;;3.90;99.90;;;;;;6716699;88;20788;-77
2023/02/25 02:41:12;;;;;;;1999.90;999.90;;;4.00;99.90;;;;;;6714474;88;20232;-77
2023/02/25 02:51:30;;;;;;;1999.90;999.90;;;3.90;99.90;;;;;;6713561;88;20202;-77
2023/02/25 03:01:36;;;;;;;1999.90;999.90;;;3.90;99.90;;;;;;6714276;88;20412;-77
2023/02/25 03:11:37;;;;;;;1999.90;999.90;;;3.90;99.90;;;;;;6711965;88;20225;-77
2023/02/25 03:21:44;;;;;;;1999.90;999.90;;;3.80;99.90;;;;;;6722082;88;20279;-77
2023/02/25 03:32:09;;;;;;;1999.90;999.90;;;3.80;99.90;;;;;;6719179;88;20350;-78
2023/02/25 03:42:12;;;;;;;1999.90;999.90;;;3.80;99.90;;;;;;6718132;88;20174;-79
2023/02/25 03:52:16;;;;;;;1999.90;999.90;;;3.80;99.90;;;;;;6717060;88;20619;-78
2023/02/25 04:02:17;;;;;;;1999.90;999.90;;;3.80;99.90;;;;;;6716115;88;20190;-78
2023/02/25 04:12:18;;;;;;;1999.90;999.90;;;3.80;99.90;;;;;;6717449;88;20201;-79
2023/02/25 04:22:18;;;;;;;1999.90;999.90;;;3.80;99.90;;;;;;6716030;88;20627;-78
2023/02/25 04:32:19;;;;;;;1999.90;999.90;;;3.80;99.90;;;;;;6714202;88;20208;-78
2023/02/25 04:42:19;;;;;;;1999.90;999.90;;;3.80;99.90;;;;;;6712948;88;20214;-78
2023/02/25 04:52:20;;;;;;;1999.90;999.90;;;3.80;99.90;;;;;;6713800;88;20622;-78
2023/02/25 05:02:20;;;;;;;1999.90;999.90;;;3.80;99.90;;;;;;6716199;88;20179;-80
2023/02/25 05:12:21;;;;;;;1999.90;999.90;;;3.60;99.90;;;;;;6714957;88;20207;-81
2023/02/25 05:22:21;;;;;;;1999.90;999.90;;;3.70;99.90;;;;;;6716044;88;20183;-79
2023/02/25 05:32:22;;;;;;;1999.90;999.90;;;3.70;99.90;;;;;;6722335;88;20214;-79
2023/02/25 05:42:23;;;;;;;1999.90;999.90;;;3.70;99.90;;;;;;6717402;88;20227;-77
2023/02/25 05:52:23;;;;;;;1999.90;999.90;;;3.70;99.90;;;;;;6716943;77;20704;-75
2023/02/25 06:02:24;;;;;;;1999.90;999.90;;;3.70;99.90;;;;;;6708392;88;20313;-76
2023/02/25 06:12:25;;;;;;;1999.90;999.90;;;3.70;99.90;;;;;;6706593;88;20728;-75
2023/02/25 06:22:26;;;;;;;1999.90;999.90;;;3.60;99.90;;;;;;6708528;88;20301;-75
2023/02/25 06:32:26;;;;;;;1999.90;999.90;;;3.80;99.90;;;;;;6710353;88;20211;-75
2023/02/25 06:42:27;;;;;;;1999.90;999.90;;;3.70;99.90;;;;;;6713417;88;20740;-75
2023/02/25 06:52:27;;;;;;;1999.90;999.90;;;3.80;99.90;;;;;;6716447;88;20206;-75
2023/02/25 07:02:28;;;;;;;1999.90;999.90;;;3.80;99.90;;;;;;6714658;88;20568;-76
2023/02/25 07:12:30;;;;;;;1999.90;999.90;;;3.80;99.90;;;;;;6716052;88;20336;-75
2023/02/25 07:22:30;;;;;;;1999.90;999.90;;;3.80;99.90;;;;;;6713953;88;20194;-75
2023/02/25 07:32:31;;;;;;;1999.90;999.90;;;3.90;99.90;;;;;;6720360;88;20182;-75
2023/02/25 07:42:33;;;;;;;1999.90;999.90;;;4.00;99.90;;;;;;6718917;88;20798;-75
2023/02/25 07:52:33;;;;;;;1999.90;999.90;;;4.10;99.90;;;;;;6714035;88;20202;-75
2023/02/25 08:02:34;;;;;;;1999.90;999.90;;;4.20;99.90;;;;;;6712860;88;20717;-75
2023/02/25 08:12:36;;;;;;;1999.90;999.90;;;4.10;99.90;;;;;;6713140;88;20531;-74
2023/02/25 08:22:37;;;;;;;1999.90;999.90;;;4.20;99.90;;;;;;6712464;88;20716;-75
2023/02/25 08:32:38;;;;;;;1999.90;999.90;;;4.30;99.90;;;;;;6710677;88;20238;-75
2023/02/25 08:42:38;;;;;;;1999.90;999.90;;;4.30;99.90;;;;;;6705437;88;20539;-75
2023/02/25 08:52:40;;;;;;;1999.90;999.90;;;4.50;99.90;;;;;;6713042;88;20194;-73
2023/02/25 09:02:41;;;;;;;1999.90;999.90;;;4.70;99.90;;;;;;6711017;88;20497;-75
2023/02/25 09:12:43;;;;;;;1999.90;999.90;;;4.80;99.90;;;;;;6715046;88;20173;-76
2023/02/25 09:22:43;;;;;;;1999.90;999.90;;;5.20;99.90;;;;;;6728832;88;20414;-76
2023/02/25 09:32:44;;;;;;;1999.90;999.90;;;5.40;99.90;;;;;;6715828;88;20263;-75
2023/02/25 09:43:01;;;;;;;1999.90;999.90;;;5.30;99.90;;;;;;6710548;88;20504;-74
2023/02/25 09:53:15;;;;;;;1999.90;999.90;;;4.60;99.90;;;;;;6709408;88;20201;-75
2023/02/25 10:03:54;;;;;;;1999.90;999.90;;;4.30;99.90;;;;;;6704029;88;20238;-74
2023/02/25 10:14:03;;;;;;;1999.90;999.90;;;4.10;99.90;;;;;;6701742;88;20189;-75
2023/02/25 10:24:35;;;;;;;1999.90;999.90;;;4.40;99.90;;;;;;6713235;88;20216;-75
2023/02/25 10:34:37;;;;;;;1999.90;999.90;;;4.60;99.90;;;;;;6715803;88;20218;-75
2023/02/25 10:44:38;;;;;;;1999.90;999.90;;;4.70;99.90;;;;;;6716592;88;20209;-75
2023/02/25 10:54:47;;;;;;;1999.90;999.90;;;5.20;99.90;;;;;;6712805;88;20773;-75
2023/02/25 11:04:49;;;;;;;1999.90;999.90;;;5.70;99.90;;;;;;6714044;88;20275;-75
2023/02/25 11:14:49;;;;;;;1999.90;999.90;;;6.30;99.90;;;;;;6707997;88;20221;-75
2023/02/25 11:25:16;;;;;;;1999.90;999.90;;;6.70;99.90;;;;;;6720441;88;20198;-75
2023/02/25 11:35:22;;;;;;;1999.90;999.90;;;6.60;99.90;;;;;;6703660;88;20218;-76
2023/02/25 11:55:52;;;;;;;1999.90;999.90;;;5.60;99.90;;;;;;6654854;89;20777;-77
2023/02/25 12:06:12;;;;;;;1999.90;999.90;;;4.60;99.90;;;;;;6643547;88;20221;-78
2023/02/25 12:16:35;;;;;;;1999.90;999.90;;;5.10;99.90;;;;;;6703096;88;20309;-78
2023/02/25 12:26:51;;;;;;;1999.90;999.90;;;5.20;99.90;;;;;;6632510;89;20730;-78
2023/02/25 12:37:24;;;;;;;1999.90;999.90;;;5.40;99.90;;;;;;6639951;89;20192;-78
2023/02/25 12:47:59;;;;;;;1999.90;999.90;;;6.50;99.90;;;;;;6635935;88;20202;-78
2023/02/25 12:58:25;;;;;;;1999.90;999.90;;;8.20;99.90;;;;;;6627717;89;20266;-80
2023/02/25 13:08:52;;;;;;;1999.90;999.90;;;9.50;99.90;;;;;;6653640;88;20249;-79
2023/02/25 13:19:16;;;;;;;1999.90;999.90;;;8.70;99.90;;;;;;6635551;89;20209;-79
2023/02/25 13:29:38;;;;;;;1999.90;999.90;;;7.20;99.90;;;;;;6619484;89;20241;-79
2023/02/25 13:40:19;;;;;;;1999.90;999.90;;;8.30;99.90;;;;;;6709119;88;20293;-79
2023/02/25 13:50:47;;;;;;;1999.90;999.90;;;11.20;99.90;;;;;;6626810;89;20198;-79
2023/02/25 14:01:11;;;;;;;1999.90;999.90;;;9.00;99.90;;;;;;6623905;89;20221;-79
2023/02/25 14:11:42;;;;;;;1999.90;999.90;;;6.60;99.90;;;;;;6658529;89;20213;-79
2023/02/25 14:22:08;;;;;;;1999.90;999.90;;;6.50;99.90;;;;;;6645618;89;20209;-78
2023/02/25 14:32:32;;;;;;;1999.90;999.90;;;8.60;99.90;;;;;;6653473;89;20172;-79
2023/02/25 14:43:14;;;;;;;1999.90;999.90;;;9.90;99.90;;;;;;6632124;89;20197;-80
2023/02/25 14:54:04;;;;;;;1999.90;999.90;;;9.20;99.90;;;;;;6657402;89;20200;-79
2023/02/25 15:04:15;;;;;;;1999.90;999.90;;;8.10;99.90;;;;;;6624903;89;20617;-79
2023/02/25 15:14:51;;;;;;;1999.90;999.90;;;7.30;99.90;;;;;;6624580;89;20250;-79
2023/02/25 15:25:13;;;;;;;1999.90;999.90;;;7.70;99.60;;;;;;6623720;89;20240;-80
2023/02/25 15:35:32;;;;;;;1999.90;999.90;;;8.40;99.80;;;;;;6624219;89;20229;-79
2023/02/25 15:45:35;;;;;;;1999.90;999.90;;;8.20;99.80;;;;;;6621857;89;20226;-78
2023/02/25 15:55:43;;;;;;;1999.90;999.90;;;8.00;99.70;;;;;;6649065;89;20824;-80
2023/02/25 16:05:44;;;;;;;1999.90;999.90;;;7.70;97.10;;;;;;6667101;88;20201;-80
2023/02/25 16:15:50;;;;;;;1999.90;999.90;;;7.30;96.70;;;;;;6712131;88;20220;-79
2023/02/25 16:25:53;;;;;;;1999.90;999.90;;;7.00;98.90;;;;;;6654445;88;20241;-79
2023/02/25 16:36:05;;;;;;;1999.90;999.90;;;6.80;98.30;;;;;;6635665;89;20330;-79
2023/02/25 16:46:19;;;;;;;1999.90;999.90;;;6.30;97.80;;;;;;6648254;89;20188;-78
2023/02/25 16:56:24;;;;;;;1999.90;999.90;;;6.00;98.80;;;;;;6680278;88;20189;-79
2023/02/25 17:06:24;;;;;;;1999.90;999.90;;;5.60;97.00;;;;;;6672183;88;20665;-78
2023/02/25 17:16:34;;;;;;;1999.90;999.90;;;5.20;96.90;;;;;;6646253;88;20249;-80
2023/02/25 17:26:39;;;;;;;1999.90;999.90;;;5.10;98.20;;;;;;6624415;89;20196;-78
2023/02/25 17:36:40;;;;;;;1999.90;999.90;;;4.70;99.20;;;;;;6649899;88;20197;-79
2023/02/25 17:46:43;;;;;;;1999.90;999.90;;;4.40;99.70;;;;;;6655336;88;20235;-77
2023/02/25 17:56:44;;;;;;;1999.90;999.90;;;4.30;99.60;;;;;;6668150;88;20207;-76
2023/02/25 18:06:45;;;;;;;1999.90;999.90;;;4.20;99.90;;;;;;6640475;88;20296;-77
2023/02/25 18:16:45;;;;;;;1999.90;999.90;;;4.00;99.90;;;;;;6646905;88;20232;-77
2023/02/25 18:27:17;;;;;;;1999.90;999.90;;;3.80;99.90;;;;;;6648023;89;20558;-77
2023/02/25 18:37:19;;;;;;;1999.90;999.90;;;3.70;99.90;;;;;;6636351;89;20587;-77
2023/02/25 18:47:19;;;;;;;1999.90;999.90;;;3.40;99.90;;;;;;6632761;89;20204;-77
2023/02/25 18:57:23;;;;;;;1999.90;999.90;;;3.20;99.90;;;;;;6632836;89;20204;-77
2023/02/25 19:07:26;;;;;;;1999.90;999.90;;;3.10;99.90;;;;;;6631699;89;20316;-77
2023/02/25 19:17:28;;;;;;;1999.90;999.90;;;3.10;99.90;;;;;;6633190;89;20674;-77
2023/02/25 19:27:29;;;;;;;1999.90;999.90;;;3.10;99.90;;;;;;6633804;88;20258;-77
2023/02/25 19:37:38;;;;;;;1999.90;999.90;;;3.10;99.90;;;;;;6633386;89;20203;-78
2023/02/25 19:47:39;;;;;;;1999.90;999.90;;;2.80;99.90;;;;;;6637002;88;20231;-77
2023/02/25 19:57:41;;;;;;;1999.90;999.90;;;2.70;99.90;;;;;;6628277;88;20204;-75
2023/02/25 20:07:42;;;;;;;1999.90;999.90;;;2.60;99.90;;;;;;6680046;88;20759;-76
2023/02/25 20:17:44;;;;;;;1999.90;999.90;;;2.60;99.90;;;;;;6713785;88;20193;-77
2023/02/25 20:27:45;;;;;;;1999.90;999.90;;;2.40;99.90;;;;;;6638018;89;20244;-75
2023/02/25 20:38:01;;;;;;;1999.90;999.90;;;2.30;99.90;;;;;;6633706;88;20232;-75
2023/02/25 20:48:02;;;;;;;1999.90;999.90;;;2.10;99.90;;;;;;6619962;89;20222;-76
2023/02/25 20:58:02;;;;;;;1999.90;999.90;;;2.00;99.90;;;;;;6632656;89;20202;-76
2023/02/25 21:08:04;;;;;;;1999.90;999.90;;;2.00;99.90;;;;;;6629690;89;20193;-76
2023/02/25 21:18:05;;;;;;;1999.90;999.90;;;1.80;99.90;;;;;;6636163;89;20196;-75
2023/02/25 21:28:05;;;;;;;1999.90;999.90;;;1.80;99.90;;;;;;6649017;89;20255;-76
2023/02/25 21:38:06;;;;;;;1999.90;999.90;;;1.50;99.90;;;;;;6645063;88;20215;-75
2023/02/25 21:48:06;;;;;;;1999.90;999.90;;;1.40;99.90;;;;;;6644540;88;20196;-75
2023/02/25 21:58:07;;;;;;;1999.90;999.90;;;1.30;99.90;;;;;;6646480;88;20200;-76
2023/02/25 22:08:08;;;;;;;1999.90;999.90;;;1.30;99.90;;;;;;6685933;88;20205;-75
2023/02/25 22:18:08;;;;;;;1999.90;999.90;;;1.20;99.90;;;;;;6643262;89;20222;-76
2023/02/25 22:28:09;;;;;;;1999.90;999.90;;;1.10;99.90;;;;;;6650672;89;20262;-76
2023/02/25 22:38:09;;;;;;;1999.90;999.90;;;1.00;99.90;;;;;;6689028;88;20323;-76
2023/02/25 22:48:10;;;;;;;1999.90;999.90;;;1.10;99.90;;;;;;6645835;88;20248;-76
2023/02/25 22:58:10;;;;;;;1999.90;999.90;;;1.20;99.90;;;;;;6694456;88;20278;-76
2023/02/25 23:08:11;;;;;;;1999.90;999.90;;;1.20;99.90;;;;;;6720540;88;20549;-76
2023/02/25 23:18:12;;;;;;;1999.90;999.90;;;1.10;99.90;;;;;;6719833;88;20244;-75
2023/02/25 23:28:13;;;;;;;1999.90;999.90;;;1.10;99.90;;;;;;6672135;88;20567;-76
2023/02/25 23:38:13;;;;;;;1999.90;999.90;;;1.00;99.90;;;;;;6663589;88;20707;-76
2023/02/25 23:48:14;;;;;;;1999.90;999.90;;;0.80;99.90;;;;;;6694965;77;20661;-76
2023/02/25 23:58:14;;;;;;;1999.90;999.90;;;0.70;99.90;;;;;;6737492;88;20719;-77
